createdAt,value
2019-03-05T00:01:16.499Z,7.07
2019-03-05T00:03:48.193Z,7.10
2019-03-05T00:06:19.494Z,7.11
2019-03-05T00:08:50.348Z,7.15
2019-03-05T00:11:21.469Z,7.12
2019-03-05T00:13:52.255Z,7.15
2019-03-05T00:16:23.168Z,7.20
2019-03-05T00:18:53.949Z,7.24
2019-03-05T00:21:25.013Z,7.17
2019-03-05T00:24:15.274Z,7.10
2019-03-05T00:26:46.761Z,7.08
2019-03-05T00:29:39.010Z,7.08
2019-03-05T00:32:10.084Z,7.08
2019-03-05T00:35:17.784Z,7.14
2019-03-05T00:38:09.173Z,7.14
2019-03-05T00:41:03.497Z,7.20
2019-03-05T00:44:17.656Z,7.16
2019-03-05T00:47:24.827Z,7.19
2019-03-05T00:50:31.819Z,7.19
2019-03-05T00:53:12.173Z,7.25
2019-03-05T00:56:04.720Z,7.23
2019-03-05T00:58:40.527Z,7.18
2019-03-05T01:01:41.404Z,7.17
2019-03-05T01:04:40.729Z,7.14
2019-03-05T01:07:11.947Z,7.13
2019-03-05T01:09:43.146Z,7.18
2019-03-05T01:12:14.700Z,7.02
2019-03-05T01:14:45.972Z,6.91
2019-03-05T01:17:16.718Z,6.89
2019-03-05T01:19:47.553Z,6.89
2019-03-05T01:22:18.388Z,6.96
2019-03-05T01:24:49.268Z,6.99
2019-03-05T01:27:20.137Z,6.95
2019-03-05T01:29:50.949Z,6.92
2019-03-05T01:32:41.096Z,6.94
2019-03-05T01:35:31.151Z,6.94
2019-03-05T01:38:02.179Z,7.00
2019-03-05T01:40:39.423Z,6.94
2019-03-05T01:43:10.509Z,6.90
2019-03-05T01:45:41.654Z,6.88
2019-03-05T01:48:12.629Z,6.83
2019-03-05T01:50:43.696Z,6.95
2019-03-05T01:53:14.671Z,6.89
2019-03-05T01:55:45.501Z,6.92
2019-03-05T01:58:17.344Z,6.87
2019-03-05T02:00:48.398Z,6.86
2019-03-05T02:03:20.280Z,6.95
2019-03-05T02:05:51.298Z,6.98
2019-03-05T02:08:22.116Z,6.99
2019-03-05T02:10:52.960Z,6.97
2019-03-05T02:13:23.789Z,6.86
2019-03-05T02:15:54.619Z,6.85
2019-03-05T02:18:27.096Z,6.82
2019-03-05T02:20:59.369Z,6.60
2019-03-05T02:23:57.666Z,6.71
2019-03-05T02:27:12.112Z,6.73
2019-03-05T02:29:49.907Z,6.67
2019-03-05T02:32:58.225Z,6.73
2019-03-05T02:35:41.780Z,6.71
2019-03-05T02:38:38.958Z,6.73
2019-03-05T02:41:36.820Z,6.74
2019-03-05T02:44:40.314Z,6.67
2019-03-05T02:48:05.001Z,6.78
2019-03-05T02:50:53.913Z,6.78
2019-03-05T02:53:49.275Z,6.83
2019-03-05T02:56:43.432Z,6.92
2019-03-05T02:59:13.864Z,6.91
2019-03-05T03:02:06.590Z,6.89
2019-03-05T03:04:41.169Z,6.96
2019-03-05T03:07:12.003Z,6.93
2019-03-05T03:10:27.412Z,6.98
2019-03-05T03:12:58.758Z,6.97
2019-03-05T03:15:31.213Z,6.89
2019-03-05T03:18:02.725Z,6.96
2019-03-05T03:20:33.677Z,6.88
2019-03-05T03:23:04.500Z,6.87
2019-03-05T03:25:35.547Z,6.95
2019-03-05T03:28:07.003Z,6.93
2019-03-05T03:30:37.815Z,6.93
2019-03-05T03:33:08.810Z,6.87
2019-03-05T03:35:39.884Z,6.90
2019-03-05T03:38:11.637Z,6.95
2019-03-05T03:40:42.677Z,6.90
2019-03-05T03:43:14.034Z,6.83
2019-03-05T03:45:45.096Z,6.86
2019-03-05T03:48:16.368Z,6.90
2019-03-05T03:50:47.359Z,6.92
2019-03-05T03:53:18.100Z,6.85
2019-03-05T03:55:49.616Z,6.87
2019-03-05T03:58:20.906Z,6.82
2019-03-05T04:00:51.667Z,6.85
2019-03-05T04:03:22.487Z,6.82
2019-03-05T04:05:53.401Z,6.72
2019-03-05T04:08:24.214Z,6.66
2019-03-05T04:10:54.962Z,6.61
2019-03-05T04:13:26.148Z,6.58
2019-03-05T04:15:57.128Z,6.63
2019-03-05T04:18:27.868Z,6.56
2019-03-05T04:20:59.084Z,6.57
2019-03-05T04:23:29.821Z,6.60
2019-03-05T04:26:00.888Z,6.59
2019-03-05T04:28:31.631Z,6.54
2019-03-05T04:31:02.768Z,6.50
2019-03-05T04:33:33.511Z,6.44
2019-03-05T04:36:04.350Z,6.52
2019-03-05T04:38:35.430Z,6.48
2019-03-05T04:41:06.180Z,6.50
2019-03-05T04:43:37.155Z,6.46
2019-03-05T04:46:25.540Z,6.44
2019-03-05T04:49:14.677Z,6.46
2019-03-05T04:51:50.115Z,6.44
2019-03-05T04:54:21.174Z,6.39
2019-03-05T04:56:51.933Z,6.42
2019-03-05T04:59:22.673Z,6.39
2019-03-05T05:01:53.430Z,6.39
2019-03-05T05:04:24.408Z,6.40
2019-03-05T05:06:55.497Z,6.40
2019-03-05T05:09:26.369Z,6.37
2019-03-05T05:11:57.344Z,6.45
2019-03-05T05:14:28.157Z,6.52
2019-03-05T05:16:59.145Z,6.48
2019-03-05T05:19:30.121Z,6.38
2019-03-05T05:22:00.892Z,6.50
2019-03-05T05:24:31.623Z,6.55
2019-03-05T05:27:02.638Z,6.53
2019-03-05T05:29:33.561Z,6.47
2019-03-05T05:32:04.397Z,6.41
2019-03-05T05:34:35.377Z,6.41
2019-03-05T05:37:06.170Z,6.44
2019-03-05T05:40:12.743Z,6.52
2019-03-05T05:42:43.493Z,6.47
2019-03-05T05:45:16.206Z,6.51
2019-03-05T05:47:47.302Z,6.50
2019-03-05T05:50:18.634Z,6.46
2019-03-05T05:52:49.725Z,6.51
2019-03-05T05:55:20.925Z,6.52
2019-03-05T05:57:51.681Z,6.53
2019-03-05T06:00:23.069Z,6.58
2019-03-05T06:02:53.893Z,6.62
2019-03-05T06:05:24.705Z,6.64
2019-03-05T06:07:55.791Z,6.61
2019-03-05T06:10:27.028Z,6.68
2019-03-05T06:12:57.890Z,6.68
2019-03-05T06:15:28.708Z,6.64
2019-03-05T06:17:59.792Z,6.68
2019-03-05T06:20:30.842Z,6.67
2019-03-05T06:23:01.667Z,6.57
2019-03-05T06:25:32.472Z,6.52
2019-03-05T06:28:03.298Z,6.41
2019-03-05T06:30:34.661Z,6.42
2019-03-05T06:33:05.484Z,6.54
2019-03-05T06:35:37.044Z,6.56
2019-03-05T06:38:08.118Z,6.55
2019-03-05T06:40:38.892Z,6.61
2019-03-05T06:43:09.937Z,6.66
2019-03-05T06:45:41.065Z,6.65
2019-03-05T06:48:11.857Z,6.64
2019-03-05T06:50:42.630Z,6.60
2019-03-05T06:53:13.632Z,6.46
2019-03-05T06:55:44.435Z,6.33
2019-03-05T06:58:15.193Z,6.23
2019-03-05T07:00:46.004Z,6.18
2019-03-05T07:03:17.044Z,6.21
2019-03-05T07:06:23.665Z,6.19
2019-03-05T07:09:06.013Z,6.30
2019-03-05T07:12:00.480Z,6.37
2019-03-05T07:14:56.684Z,6.46
2019-03-05T07:17:39.846Z,6.56
2019-03-05T07:21:16.343Z,6.62
2019-03-05T07:24:10.654Z,6.65
2019-03-05T07:26:41.471Z,6.64
2019-03-05T07:29:12.378Z,6.75
2019-03-05T07:31:43.181Z,6.83
2019-03-05T07:34:26.001Z,6.90
2019-03-05T07:36:57.439Z,6.97
2019-03-05T07:39:28.257Z,7.02
2019-03-05T07:41:59.348Z,7.00
2019-03-05T07:44:30.797Z,6.98
2019-03-05T07:47:01.942Z,7.02
2019-03-05T07:49:43.353Z,7.09
2019-03-05T07:52:05.484Z,7.18
2019-03-05T07:54:36.462Z,7.16
2019-03-05T07:57:07.574Z,7.23
2019-03-05T07:59:38.398Z,7.25
2019-03-05T08:02:09.472Z,7.24
2019-03-05T08:04:40.639Z,7.21
2019-03-05T08:07:11.558Z,7.27
2019-03-05T08:09:42.429Z,7.38
2019-03-05T08:12:53.627Z,7.34
2019-03-05T08:16:24.396Z,7.37
2019-03-05T08:18:55.506Z,7.52
2019-03-05T08:21:26.546Z,7.46
2019-03-05T08:23:57.372Z,7.63
2019-03-05T08:26:28.358Z,7.63
2019-03-05T08:28:59.407Z,7.63
2019-03-05T08:31:30.161Z,7.65
2019-03-05T08:34:01.883Z,7.69
2019-03-05T08:36:32.922Z,7.63
2019-03-05T08:39:06.019Z,7.74
2019-03-05T08:41:37.257Z,7.76
2019-03-05T08:44:08.112Z,7.76
2019-03-05T08:46:39.157Z,7.80
2019-03-05T08:49:10.321Z,7.86
2019-03-05T08:51:41.304Z,7.87
2019-03-05T08:54:12.308Z,7.82
2019-03-05T08:56:43.557Z,7.84
2019-03-05T08:59:14.857Z,7.76
2019-03-05T09:01:46.131Z,7.76
2019-03-05T09:04:17.154Z,7.73
2019-03-05T09:06:48.208Z,7.68
2019-03-05T09:09:19.575Z,7.69
2019-03-05T09:11:50.415Z,7.69
2019-03-05T09:14:21.530Z,7.68
2019-03-05T09:16:52.329Z,7.65
2019-03-05T09:19:23.543Z,7.62
2019-03-05T09:21:54.948Z,7.61
2019-03-05T09:24:25.779Z,7.64
2019-03-05T09:26:56.601Z,7.61
2019-03-05T09:29:28.024Z,7.53
2019-03-05T09:31:58.840Z,7.46
2019-03-05T09:34:29.846Z,7.43
2019-03-05T09:37:00.809Z,7.24
2019-03-05T09:39:31.721Z,7.17
2019-03-05T09:42:02.793Z,6.96
2019-03-05T09:44:34.043Z,6.79
2019-03-05T09:47:05.053Z,6.68
2019-03-05T09:49:35.873Z,6.69
2019-03-05T09:52:06.873Z,6.60
2019-03-05T09:54:37.694Z,6.55
2019-03-05T09:57:08.721Z,6.67
2019-03-05T09:59:39.778Z,6.66
2019-03-05T10:02:11.176Z,6.75
2019-03-05T10:04:45.084Z,6.77
2019-03-05T10:07:19.308Z,6.84
2019-03-05T10:09:49.799Z,6.94
2019-03-05T10:12:21.125Z,6.90
2019-03-05T10:14:51.889Z,7.04
2019-03-05T10:17:22.876Z,6.98
2019-03-05T10:19:54.063Z,7.02
2019-03-05T10:22:25.489Z,7.01
2019-03-05T10:25:05.673Z,6.89
2019-03-05T10:27:29.581Z,6.72
2019-03-05T10:30:00.616Z,6.60
2019-03-05T10:32:32.046Z,6.63
2019-03-05T10:35:03.215Z,6.56
2019-03-05T10:37:34.344Z,6.59
2019-03-05T10:40:05.581Z,6.64
2019-03-05T10:42:36.866Z,6.65
2019-03-05T10:45:09.272Z,6.68
2019-03-05T10:47:40.160Z,6.75
2019-03-05T10:50:15.599Z,6.73
2019-03-05T10:52:47.521Z,6.72
2019-03-05T10:55:26.210Z,6.66
2019-03-05T10:57:51.575Z,6.73
2019-03-05T11:00:27.135Z,6.79
2019-03-05T11:02:59.154Z,7.00
2019-03-05T11:05:32.356Z,7.00
2019-03-05T11:08:03.271Z,7.06
2019-03-05T11:10:34.311Z,7.07
2019-03-05T11:13:05.705Z,7.11
2019-03-05T11:15:37.887Z,7.14
2019-03-05T11:18:09.346Z,7.17
2019-03-05T11:20:40.442Z,7.25
2019-03-05T11:23:11.763Z,7.34
2019-03-05T11:25:43.139Z,7.37
2019-03-05T11:28:14.214Z,7.41
2019-03-05T11:30:45.375Z,7.39
2019-03-05T11:33:16.258Z,7.30
2019-03-05T11:35:47.129Z,7.35
2019-03-05T11:38:18.506Z,7.37
2019-03-05T11:40:49.339Z,7.36
2019-03-05T11:43:20.164Z,7.28
2019-03-05T11:45:51.175Z,7.31
2019-03-05T11:48:22.149Z,7.29
2019-03-05T11:50:53.045Z,7.34
2019-03-05T11:53:24.340Z,7.25
2019-03-05T11:55:55.335Z,7.37
2019-03-05T11:58:27.290Z,7.32
2019-03-05T12:01:13.865Z,7.34
2019-03-05T12:03:45.094Z,7.38
2019-03-05T12:06:16.381Z,7.50
2019-03-05T12:08:47.619Z,7.49
2019-03-05T12:11:18.517Z,7.60
2019-03-05T12:13:49.487Z,7.54
2019-03-05T12:16:20.786Z,7.47
2019-03-05T12:18:51.632Z,7.43
2019-03-05T12:21:22.632Z,7.41
2019-03-05T12:23:53.665Z,7.37
2019-03-05T12:26:24.645Z,7.30
2019-03-05T12:28:56.025Z,7.35
2019-03-05T12:31:28.284Z,7.34
2019-03-05T12:33:59.027Z,7.43
2019-03-05T12:36:30.007Z,7.54
2019-03-05T12:39:01.026Z,7.42
2019-03-05T12:41:33.996Z,7.44
2019-03-05T12:44:05.466Z,7.43
2019-03-05T12:46:36.866Z,7.44
2019-03-05T12:49:07.715Z,7.38
2019-03-05T12:51:38.704Z,7.39
2019-03-05T12:54:09.493Z,7.46
2019-03-05T12:56:40.557Z,7.52
2019-03-05T12:59:11.974Z,7.60
2019-03-05T13:01:43.011Z,7.57
2019-03-05T13:04:14.062Z,7.53
2019-03-05T13:06:45.122Z,7.44
2019-03-05T13:09:19.585Z,7.57
2019-03-05T13:11:50.972Z,7.53
2019-03-05T13:14:22.131Z,7.54
2019-03-05T13:16:53.204Z,7.47
2019-03-05T13:19:24.449Z,7.50
2019-03-05T13:21:55.491Z,7.53
2019-03-05T13:24:27.585Z,7.57
2019-03-05T13:26:58.577Z,7.61
2019-03-05T13:29:29.571Z,7.59
2019-03-05T13:32:00.536Z,7.59
2019-03-05T13:34:31.618Z,7.58
2019-03-05T13:37:02.356Z,7.61
2019-03-05T13:39:33.455Z,7.65
2019-03-05T13:42:04.484Z,7.70
2019-03-05T13:44:36.164Z,7.63
2019-03-05T13:47:08.696Z,7.58
2019-03-05T13:50:21.053Z,7.67
2019-03-05T13:53:23.963Z,7.72
2019-03-05T13:56:21.619Z,7.78
2019-03-05T13:59:31.255Z,7.75
2019-03-05T14:02:02.335Z,7.83
2019-03-05T14:04:44.300Z,7.83
2019-03-05T14:07:38.138Z,7.80
2019-03-05T14:10:09.020Z,7.83
2019-03-05T14:12:40.196Z,7.86
2019-03-05T14:15:11.405Z,7.82
2019-03-05T14:17:44.255Z,7.77
2019-03-05T14:20:16.145Z,7.79
2019-03-05T14:22:47.530Z,7.93
2019-03-05T14:25:18.786Z,7.81
2019-03-05T14:27:50.280Z,7.92
2019-03-05T14:30:21.900Z,7.94
2019-03-05T14:32:53.439Z,8.12
2019-03-05T14:35:27.601Z,8.26
2019-03-05T14:37:58.727Z,8.33
2019-03-05T14:40:30.947Z,8.45
2019-03-05T14:43:03.285Z,8.48
2019-03-05T14:45:36.236Z,8.50
2019-03-05T14:48:07.915Z,8.53
2019-03-05T14:50:38.975Z,8.43
2019-03-05T14:53:11.906Z,8.42
2019-03-05T14:55:43.143Z,8.45
2019-03-05T14:58:14.039Z,8.89
2019-03-05T15:00:45.143Z,8.92
2019-03-05T15:03:16.059Z,9.15
2019-03-05T15:05:46.831Z,9.44
2019-03-05T15:08:18.305Z,8.82
2019-03-05T15:10:49.629Z,8.98
2019-03-05T15:13:20.602Z,9.10
2019-03-05T15:15:51.371Z,8.90
2019-03-05T15:18:22.450Z,8.87
2019-03-05T15:20:53.512Z,8.78
2019-03-05T15:23:25.089Z,8.79
2019-03-05T15:25:56.426Z,8.85
2019-03-05T15:28:27.464Z,9.04
2019-03-05T15:30:58.488Z,9.06
2019-03-05T15:33:29.541Z,8.88
2019-03-05T15:36:00.690Z,8.62
2019-03-05T15:38:31.733Z,8.45
2019-03-05T15:41:02.850Z,8.34
2019-03-05T15:43:33.979Z,8.28
2019-03-05T15:46:05.668Z,8.35
2019-03-05T15:48:36.785Z,8.33
2019-03-05T15:51:07.636Z,8.41
2019-03-05T15:53:39.112Z,8.39
2019-03-05T15:56:10.140Z,8.46
2019-03-05T15:58:41.867Z,8.59
2019-03-05T16:01:21.876Z,8.59
2019-03-05T16:03:45.756Z,8.59
2019-03-05T16:06:16.961Z,8.67
2019-03-05T16:08:48.544Z,8.57
2019-03-05T16:11:19.586Z,8.56
2019-03-05T16:13:52.202Z,8.40
2019-03-05T16:16:24.230Z,8.39
2019-03-05T16:18:55.240Z,8.38
2019-03-05T16:21:26.311Z,8.27
2019-03-05T16:24:01.629Z,8.24
2019-03-05T16:26:31.292Z,8.11
2019-03-05T16:29:02.028Z,7.95
2019-03-05T16:31:52.273Z,7.96
2019-03-05T16:34:51.284Z,7.82
2019-03-05T16:37:42.629Z,7.68
2019-03-05T16:40:31.380Z,7.74
2019-03-05T16:43:12.656Z,7.66
2019-03-05T16:46:17.903Z,7.66
2019-03-05T16:48:56.177Z,7.65
2019-03-05T16:51:32.393Z,7.58
2019-03-05T16:54:27.302Z,7.53
2019-03-05T16:57:12.613Z,7.45
2019-03-05T16:59:53.192Z,7.39
2019-03-05T17:02:49.721Z,7.31
2019-03-05T17:05:44.529Z,7.22
2019-03-05T17:08:43.469Z,7.15
2019-03-05T17:11:36.592Z,7.06
2019-03-05T17:14:08.022Z,6.92
2019-03-05T17:16:38.890Z,6.86
2019-03-05T17:19:09.660Z,6.74
2019-03-05T17:21:40.902Z,6.78
2019-03-05T17:24:12.283Z,6.61
2019-03-05T17:26:43.139Z,6.56
2019-03-05T17:29:14.651Z,6.51
2019-03-05T17:31:45.926Z,6.47
2019-03-05T17:34:17.349Z,6.48
2019-03-05T17:36:48.794Z,6.50
2019-03-05T17:39:21.238Z,6.53
2019-03-05T17:41:52.447Z,6.50
2019-03-05T17:44:23.407Z,6.52
2019-03-05T17:46:55.005Z,6.42
2019-03-05T17:49:26.425Z,6.44
2019-03-05T17:51:57.411Z,6.44
2019-03-05T17:54:28.528Z,6.45
2019-03-05T17:56:59.392Z,6.42
2019-03-05T17:59:30.848Z,6.52
2019-03-05T18:02:01.668Z,6.56
2019-03-05T18:04:33.024Z,6.55
2019-03-05T18:07:04.123Z,6.44
2019-03-05T18:09:35.058Z,6.30
2019-03-05T18:12:06.104Z,6.35
2019-03-05T18:14:37.209Z,6.32
2019-03-05T18:17:08.196Z,6.44
2019-03-05T18:19:39.130Z,6.47
2019-03-05T18:22:09.936Z,6.43
2019-03-05T18:24:40.853Z,6.49
2019-03-05T18:27:12.409Z,6.31
2019-03-05T18:29:43.713Z,6.31
2019-03-05T18:32:15.405Z,6.06
2019-03-05T18:34:46.246Z,5.93
2019-03-05T18:37:17.463Z,5.80
2019-03-05T18:39:48.746Z,5.75
2019-03-05T18:42:19.890Z,5.67
2019-03-05T18:44:51.025Z,5.99
2019-03-05T18:47:22.442Z,6.05
2019-03-05T18:49:53.676Z,6.16
2019-03-05T18:52:24.777Z,6.15
2019-03-05T18:54:55.881Z,6.25
2019-03-05T18:57:28.954Z,6.34
2019-03-05T19:00:01.997Z,6.37
2019-03-05T19:02:34.417Z,6.49
2019-03-05T19:05:05.946Z,6.53
2019-03-05T19:07:37.166Z,6.51
2019-03-05T19:10:11.206Z,6.56
2019-03-05T19:12:42.634Z,6.55
2019-03-05T19:15:15.876Z,6.53
2019-03-05T19:17:47.064Z,6.46
2019-03-05T19:20:19.876Z,6.46
2019-03-05T19:22:51.093Z,6.34
2019-03-05T19:25:23.827Z,6.37
2019-03-05T19:27:54.568Z,6.31
2019-03-05T19:30:30.898Z,6.01
2019-03-05T19:33:02.150Z,6.09
2019-03-05T19:35:33.073Z,6.23
2019-03-05T19:38:04.225Z,6.04
2019-03-05T19:40:36.204Z,5.88
2019-03-05T19:43:07.280Z,5.86
2019-03-05T19:45:38.593Z,5.84
2019-03-05T19:48:09.412Z,6.01
2019-03-05T19:50:40.305Z,6.09
2019-03-05T19:53:12.096Z,6.01
2019-03-05T19:55:43.083Z,6.20
2019-03-05T19:58:14.601Z,6.51
2019-03-05T20:00:53.561Z,6.58
2019-03-05T20:03:24.408Z,6.55
2019-03-05T20:05:55.335Z,6.60
2019-03-05T20:08:26.840Z,6.73
2019-03-05T20:10:58.115Z,6.74
2019-03-05T20:13:30.686Z,6.73
2019-03-05T20:16:01.751Z,6.77
2019-03-05T20:18:32.569Z,6.83
2019-03-05T20:21:03.321Z,6.83
2019-03-05T20:23:35.072Z,6.75
2019-03-05T20:26:07.652Z,6.73
2019-03-05T20:28:38.466Z,6.72
2019-03-05T20:31:09.544Z,6.68
2019-03-05T20:33:41.067Z,6.75
2019-03-05T20:36:12.364Z,6.85
2019-03-05T20:38:45.100Z,6.83
2019-03-05T20:41:15.956Z,6.83
2019-03-05T20:43:46.929Z,6.90
2019-03-05T20:46:24.087Z,6.91
2019-03-05T20:48:55.324Z,6.96
2019-03-05T20:51:26.547Z,6.94
2019-03-05T20:53:58.378Z,7.06
2019-03-05T20:56:30.357Z,7.05
2019-03-05T20:59:01.165Z,6.96
2019-03-05T21:01:32.831Z,6.92
2019-03-05T21:04:04.001Z,6.97
2019-03-05T21:06:36.102Z,7.01
2019-03-05T21:09:18.112Z,6.97
2019-03-05T21:11:49.324Z,7.04
2019-03-05T21:14:20.886Z,7.06
2019-03-05T21:16:52.345Z,7.06
2019-03-05T21:19:23.252Z,7.06
2019-03-05T21:21:54.167Z,7.07
2019-03-05T21:24:26.673Z,7.06
2019-03-05T21:26:57.730Z,7.07
2019-03-05T21:29:28.532Z,7.07
2019-03-05T21:31:59.915Z,7.21
2019-03-05T21:34:30.671Z,7.19
2019-03-05T21:37:01.722Z,7.23
2019-03-05T21:39:32.683Z,7.23
2019-03-05T21:42:03.721Z,7.25
2019-03-05T21:44:34.537Z,7.21
2019-03-05T21:47:05.688Z,7.25
2019-03-05T21:49:36.743Z,7.29
2019-03-05T21:52:08.094Z,7.21
2019-03-05T21:54:39.464Z,7.14
2019-03-05T21:57:10.517Z,7.21
2019-03-05T21:59:41.786Z,7.22
2019-03-05T22:02:12.696Z,7.19
2019-03-05T22:04:43.764Z,7.25
2019-03-05T22:07:14.799Z,7.30
2019-03-05T22:09:45.579Z,7.29
2019-03-05T22:12:16.784Z,7.32
2019-03-05T22:14:47.993Z,7.34
2019-03-05T22:17:18.904Z,7.35
2019-03-05T22:19:49.822Z,7.29
2019-03-05T22:22:20.647Z,7.25
2019-03-05T22:24:51.468Z,7.32
2019-03-05T22:27:23.275Z,7.30
2019-03-05T22:29:54.249Z,7.38
2019-03-05T22:32:25.079Z,7.41
2019-03-05T22:34:55.826Z,7.34
2019-03-05T22:37:26.642Z,7.31
2019-03-05T22:39:58.129Z,7.27
2019-03-05T22:42:29.753Z,7.40
2019-03-05T22:45:00.707Z,7.35
2019-03-05T22:47:32.342Z,7.41
2019-03-05T22:50:03.581Z,7.44
2019-03-05T22:52:34.699Z,7.48
2019-03-05T22:55:05.749Z,7.42
2019-03-05T22:57:36.721Z,7.51
2019-03-05T23:00:11.500Z,7.45
2019-03-05T23:02:44.101Z,7.43
2019-03-05T23:05:15.996Z,7.38
2019-03-05T23:07:46.905Z,7.43
2019-03-05T23:10:18.589Z,7.38
2019-03-05T23:12:49.591Z,7.36
2019-03-05T23:15:20.712Z,7.37
2019-03-05T23:17:52.122Z,7.43
2019-03-05T23:20:22.924Z,7.42
2019-03-05T23:22:54.144Z,7.47
2019-03-05T23:25:24.951Z,7.47
2019-03-05T23:27:55.845Z,7.44
2019-03-05T23:30:26.721Z,7.37
2019-03-05T23:32:57.675Z,7.36
2019-03-05T23:35:28.970Z,7.29
2019-03-05T23:38:00.258Z,7.30
2019-03-05T23:40:32.285Z,7.35
2019-03-05T23:43:03.328Z,7.39
2019-03-05T23:45:34.605Z,7.39
2019-03-05T23:48:05.439Z,7.29
2019-03-05T23:50:36.328Z,7.17
2019-03-05T23:53:07.385Z,7.27
2019-03-05T23:55:38.430Z,7.42
2019-03-05T23:58:09.874Z,7.37
